Aéroport int. de Vancouver, Colombie-Britannique

Conditions des dernières 24 heures

Date / Heure
(HNP)
Conditions Temp
(°F)
Humidité
(%)
Point de rosée
(°F)
Vent
(mph)
Pression (pouces) Visibilité
(miles)
30 janvier 2015
1:00 Généralement dégagé 40 97 39 calme 30.4 20
0:00 Partiellement nuageux 37 95 35 calme 30.3 20
29 janvier 2015
23:00 Partiellement nuageux 36 97 35 N 4 30.3 20
22:00 Brouillard 37 96 35 calme 30.3 20
21:00 Généralement nuageux 40 97 40 calme 30.3 20
20:00 Partiellement nuageux 37 98 36 NO 4 30.3 30
19:00 Généralement dégagé 40 98 40 ONO 3 30.3 30
18:00 Généralement dégagé 42 97 41 ONO 4 30.3 30
17:00 Généralement ensoleillé 42 95 41 NO 7 30.3 30
16:00 Généralement ensoleillé 46 91 43 NO 9 30.3 30
15:00 Ensoleillé 47   90 44 ONO 12 30.4 30
14:00 Généralement ensoleillé 47   86 43 ONO 9 30.4 30
13:00 Généralement ensoleillé 47   87 44 ONO 10 30.4 30
12:00 Partiellement nuageux 47   81 42 ONO 12 30.4 30
11:00 Nuageux 45 92 43 ONO 7 30.4 30
10:00 Généralement nuageux 43 92 41 ONO 5 30.4 30
9:00 Généralement nuageux 38 95 37 SSO 3 30.4 30
8:00 Partiellement nuageux 36 97 35 NNE 5 30.4 30
7:00 Généralement dégagé 37 95 36 ENE 8 30.4 20
6:00 Généralement nuageux 37 96 36 N 4 30.4 20
5:00 Généralement dégagé 36 94 35 NNO 2 30.4 20
4:00 Généralement nuageux 39 96 38 calme 30.4 20
3:00 Généralement nuageux 38 97 38 calme 30.4 20
2:00 Partiellement nuageux 35   96 34 N 2 30.4 20
1:00 Partiellement nuageux 35   96 34 calme 30.4 20
N.D. non disponible
↑ température la plus haute
↓ température la plus basse

Si vous désirez plus de données historiques sur les conditions météo, s.v.p. visitez Données climatologiques en ligne.

Ce que nous faisons

Date de modification :